createdAt,value
2019-03-28T00:01:38.138Z,5.80
2019-03-28T00:04:04.651Z,5.70
2019-03-28T00:06:30.871Z,5.60
2019-03-28T00:08:57.120Z,5.50
2019-03-28T00:11:23.755Z,5.40
2019-03-28T00:13:50.501Z,5.30
2019-03-28T00:16:16.726Z,5.50
2019-03-28T00:18:43.095Z,5.20
2019-03-28T00:21:09.320Z,5.20
2019-03-28T00:23:37.507Z,5.20
2019-03-28T00:26:03.838Z,5.10
2019-03-28T00:28:30.087Z,5.10
2019-03-28T00:30:56.314Z,5.10
2019-03-28T00:33:22.582Z,5.00
2019-03-28T00:35:48.806Z,5.10
2019-03-28T00:38:15.050Z,5.10
2019-03-28T00:40:41.317Z,5.20
2019-03-28T00:43:07.646Z,5.10
2019-03-28T00:45:33.894Z,4.80
2019-03-28T00:48:00.130Z,4.90
2019-03-28T00:50:26.379Z,4.90
2019-03-28T00:52:52.601Z,4.90
2019-03-28T00:55:19.038Z,4.80
2019-03-28T00:57:45.379Z,4.90
2019-03-28T01:00:14.285Z,4.90
2019-03-28T01:02:40.746Z,4.80
2019-03-28T01:05:07.373Z,4.70
2019-03-28T01:07:33.630Z,4.80
2019-03-28T01:09:59.859Z,4.80
2019-03-28T01:12:26.160Z,4.80
2019-03-28T01:14:52.387Z,4.80
2019-03-28T01:17:18.653Z,4.90
2019-03-28T01:19:45.366Z,4.90
2019-03-28T01:22:12.078Z,4.80
2019-03-28T01:24:40.040Z,4.90
2019-03-28T01:27:06.403Z,4.90
2019-03-28T01:29:32.647Z,4.80
2019-03-28T01:31:58.882Z,4.80
2019-03-28T01:34:25.140Z,4.70
2019-03-28T01:36:51.357Z,4.70
2019-03-28T01:39:17.614Z,4.70
2019-03-28T01:41:43.838Z,4.70
2019-03-28T01:44:10.066Z,4.70
2019-03-28T01:46:36.314Z,4.60
2019-03-28T01:49:03.761Z,4.60
2019-03-28T01:51:30.006Z,4.70
2019-03-28T01:53:56.262Z,4.70
2019-03-28T01:56:24.963Z,4.80
2019-03-28T01:58:50.716Z,4.70
2019-03-28T02:01:16.968Z,4.70
2019-03-28T02:03:43.194Z,4.50
2019-03-28T02:06:09.663Z,4.50
2019-03-28T02:08:35.874Z,4.50
2019-03-28T02:11:02.234Z,4.50
2019-03-28T02:13:28.461Z,4.50
2019-03-28T02:15:55.358Z,4.50
2019-03-28T02:18:21.633Z,4.50
2019-03-28T02:20:48.072Z,4.50
2019-03-28T02:23:14.337Z,4.60
2019-03-28T02:25:40.574Z,4.60
2019-03-28T02:28:06.830Z,4.50
2019-03-28T02:30:33.586Z,4.50
2019-03-28T02:33:00.283Z,4.50
2019-03-28T02:35:26.475Z,4.50
2019-03-28T02:37:52.934Z,4.60
2019-03-28T02:40:19.164Z,4.60
2019-03-28T02:42:45.385Z,4.50
2019-03-28T02:45:11.852Z,4.60
2019-03-28T02:47:38.092Z,4.60
2019-03-28T02:50:05.240Z,4.60
2019-03-28T02:52:31.474Z,4.60
2019-03-28T02:54:58.015Z,4.60
2019-03-28T02:57:39.575Z,4.60
2019-03-28T02:59:52.789Z,4.70
2019-03-28T03:02:19.011Z,4.70
2019-03-28T03:04:45.259Z,4.60
2019-03-28T03:07:11.498Z,4.70
2019-03-28T03:09:37.722Z,4.70
2019-03-28T03:12:03.986Z,4.40
2019-03-28T03:14:30.221Z,4.30
2019-03-28T03:16:56.478Z,4.30
2019-03-28T03:19:22.723Z,4.30
2019-03-28T03:21:48.968Z,4.30
2019-03-28T03:24:15.220Z,4.20
2019-03-28T03:26:41.550Z,4.20
2019-03-28T03:29:07.908Z,4.10
2019-03-28T03:31:34.133Z,4.10
2019-03-28T03:34:00.395Z,4.00
2019-03-28T03:36:26.623Z,4.10
2019-03-28T03:38:52.874Z,3.90
2019-03-28T03:41:21.014Z,3.90
2019-03-28T03:43:47.248Z,3.90
2019-03-28T03:46:13.470Z,4.00
2019-03-28T03:48:39.719Z,2.90
2019-03-28T03:51:05.946Z,3.90
2019-03-28T03:53:32.246Z,3.90
2019-03-28T03:55:58.467Z,4.20
2019-03-28T03:58:24.726Z,3.90
2019-03-28T04:00:50.950Z,4.00
2019-03-28T04:03:17.163Z,3.90
2019-03-28T04:05:43.418Z,3.90
2019-03-28T04:08:09.741Z,3.90
2019-03-28T04:10:35.995Z,4.00
2019-03-28T04:13:02.230Z,3.80
2019-03-28T04:15:28.474Z,3.90
2019-03-28T04:17:54.699Z,3.80
2019-03-28T04:20:20.930Z,3.80
2019-03-28T04:22:47.174Z,3.80
2019-03-28T04:25:13.739Z,3.90
2019-03-28T04:27:40.175Z,3.90
2019-03-28T04:30:07.103Z,3.80
2019-03-28T04:32:33.355Z,3.80
2019-03-28T04:34:59.658Z,3.70
2019-03-28T04:37:26.143Z,3.70
2019-03-28T04:39:52.374Z,3.60
2019-03-28T04:42:18.637Z,3.70
2019-03-28T04:44:44.874Z,3.60
2019-03-28T04:47:11.111Z,3.70
2019-03-28T04:49:37.369Z,3.70
2019-03-28T04:52:03.587Z,3.70
2019-03-28T04:54:29.942Z,3.70
2019-03-28T04:56:56.169Z,3.80
2019-03-28T04:59:22.422Z,3.80
2019-03-28T05:01:59.680Z,3.70
2019-03-28T05:04:16.831Z,3.70
2019-03-28T05:06:43.061Z,3.70
2019-03-28T05:09:09.307Z,3.60
2019-03-28T05:11:35.530Z,3.70
2019-03-28T05:14:01.785Z,3.70
2019-03-28T05:16:28.014Z,3.60
2019-03-28T05:18:54.285Z,3.60
2019-03-28T05:21:20.502Z,3.70
2019-03-28T05:23:46.766Z,3.70
2019-03-28T05:26:13.014Z,3.70
2019-03-28T05:28:39.251Z,3.70
2019-03-28T05:31:05.516Z,4.00
2019-03-28T05:33:31.842Z,4.20
2019-03-28T05:35:58.102Z,4.40
2019-03-28T05:38:24.428Z,4.60
2019-03-28T05:40:50.680Z,6.70
2019-03-28T05:43:16.911Z,5.90
2019-03-28T05:45:44.157Z,7.00
2019-03-28T05:48:11.190Z,8.60
2019-03-28T05:50:37.441Z,9.70
2019-03-28T05:53:03.677Z,10.60
2019-03-28T05:55:30.984Z,12.10
2019-03-28T05:57:57.177Z,13.20
2019-03-28T06:00:23.548Z,14.60
2019-03-28T06:02:50.472Z,15.30
2019-03-28T06:05:16.746Z,15.50
2019-03-28T06:07:42.963Z,16.80
2019-03-28T06:10:10.350Z,17.70
2019-03-28T06:12:36.659Z,18.70
2019-03-28T06:15:05.641Z,19.20
2019-03-28T06:17:31.867Z,20.10
2019-03-28T06:19:58.140Z,21.20
2019-03-28T06:22:24.370Z,21.70
2019-03-28T06:24:50.646Z,24.00
2019-03-28T06:27:16.882Z,23.60
2019-03-28T06:29:43.138Z,23.90
2019-03-28T06:32:09.381Z,24.50
2019-03-28T06:34:35.603Z,24.30
2019-03-28T06:37:01.855Z,24.50
2019-03-28T06:39:28.082Z,24.00
2019-03-28T06:41:54.342Z,25.20
2019-03-28T06:44:20.565Z,25.70
2019-03-28T06:46:46.821Z,25.60
2019-03-28T06:49:13.049Z,25.30
2019-03-28T06:51:39.318Z,26.40
2019-03-28T06:54:05.544Z,26.80
2019-03-28T06:56:31.806Z,26.70
2019-03-28T06:58:58.039Z,25.50
2019-03-28T07:01:24.294Z,22.90
2019-03-28T07:03:50.555Z,22.60
2019-03-28T07:06:16.990Z,21.40
2019-03-28T07:08:43.317Z,20.10
2019-03-28T07:11:09.494Z,17.00
2019-03-28T07:13:36.366Z,14.60
2019-03-28T07:16:02.995Z,13.00
2019-03-28T07:18:29.227Z,11.70
2019-03-28T07:20:55.450Z,13.20
2019-03-28T07:23:21.689Z,18.00
2019-03-28T07:25:48.091Z,20.50
2019-03-28T07:28:14.311Z,20.40
2019-03-28T07:30:40.590Z,21.70
2019-03-28T07:33:06.857Z,24.80
2019-03-28T07:35:33.113Z,26.90
2019-03-28T07:37:59.333Z,27.80
2019-03-28T07:40:25.706Z,28.70
2019-03-28T07:42:52.419Z,29.10
2019-03-28T07:45:18.809Z,30.70
2019-03-28T07:47:45.022Z,30.80
2019-03-28T07:50:11.705Z,30.50
2019-03-28T07:52:38.129Z,30.20
2019-03-28T07:55:05.729Z,30.40
2019-03-28T07:57:32.115Z,29.10
2019-03-28T08:00:04.151Z,30.10
2019-03-28T08:02:26.389Z,30.70
2019-03-28T08:04:52.618Z,31.30
2019-03-28T08:07:18.975Z,30.20
2019-03-28T08:09:45.202Z,29.20
2019-03-28T08:12:22.636Z,26.10
2019-03-28T08:14:39.503Z,21.90
2019-03-28T08:17:05.730Z,18.70
2019-03-28T08:19:31.986Z,17.60
2019-03-28T08:21:58.233Z,17.50
2019-03-28T08:24:24.529Z,17.80
2019-03-28T08:26:50.872Z,17.40
2019-03-28T08:29:17.129Z,17.20
2019-03-28T08:31:45.470Z,17.00
2019-03-28T08:34:11.720Z,16.60
2019-03-28T08:36:38.043Z,16.50
2019-03-28T08:39:05.789Z,15.60
2019-03-28T08:41:32.027Z,15.80
2019-03-28T08:43:58.270Z,15.70
2019-03-28T08:46:24.520Z,15.60
2019-03-28T08:48:50.743Z,15.80
2019-03-28T08:51:16.998Z,15.80
2019-03-28T08:53:43.223Z,15.70
2019-03-28T08:56:09.466Z,15.80
2019-03-28T08:58:38.178Z,15.20
2019-03-28T09:01:05.895Z,14.80
2019-03-28T09:03:32.270Z,14.80
2019-03-28T09:05:58.850Z,14.50
2019-03-28T09:08:25.077Z,14.40
2019-03-28T09:10:51.299Z,14.60
2019-03-28T09:13:29.406Z,14.90
2019-03-28T09:15:55.693Z,14.90
2019-03-28T09:18:30.805Z,14.70
2019-03-28T09:20:57.039Z,14.30
2019-03-28T09:23:23.292Z,14.10
2019-03-28T09:25:49.534Z,14.10
2019-03-28T09:28:15.949Z,14.10
2019-03-28T09:30:48.590Z,13.80
2019-03-28T09:33:10.621Z,13.90
2019-03-28T09:35:36.872Z,14.50
2019-03-28T09:38:03.394Z,14.40
2019-03-28T09:40:29.619Z,14.30
2019-03-28T09:42:56.170Z,14.20
2019-03-28T09:45:22.425Z,14.80
2019-03-28T09:47:48.642Z,14.90
2019-03-28T09:50:14.991Z,14.00
2019-03-28T09:52:41.211Z,13.90
2019-03-28T09:55:07.429Z,14.20
2019-03-28T09:57:33.682Z,14.60
2019-03-28T09:59:59.902Z,14.30
2019-03-28T10:02:26.172Z,14.30
2019-03-28T10:04:52.389Z,14.10
2019-03-28T10:07:18.636Z,13.90
2019-03-28T10:09:45.077Z,13.90
2019-03-28T10:12:11.418Z,13.90
2019-03-28T10:14:37.650Z,13.60
2019-03-28T10:17:03.878Z,14.10
2019-03-28T10:19:30.134Z,13.80
2019-03-28T10:21:56.359Z,13.70
2019-03-28T10:24:22.613Z,13.70
2019-03-28T10:26:48.865Z,13.60
2019-03-28T10:29:15.174Z,14.00
2019-03-28T10:31:41.538Z,13.80
2019-03-28T10:34:07.813Z,14.10
2019-03-28T10:36:34.172Z,14.00
2019-03-28T10:39:00.456Z,13.50
2019-03-28T10:41:26.732Z,13.50
2019-03-28T10:43:53.010Z,14.20
2019-03-28T10:46:19.395Z,13.70
2019-03-28T10:48:45.670Z,13.50
2019-03-28T10:51:11.953Z,13.10
2019-03-28T10:53:38.313Z,13.30
2019-03-28T10:56:20.498Z,13.10
2019-03-28T10:58:35.170Z,13.20
2019-03-28T11:01:04.115Z,13.10
2019-03-28T11:03:30.556Z,13.10
2019-03-28T11:05:56.874Z,13.10
2019-03-28T11:08:23.174Z,12.80
2019-03-28T11:10:49.452Z,12.60
2019-03-28T11:13:15.751Z,12.50
2019-03-28T11:15:42.116Z,12.60
2019-03-28T11:18:08.405Z,12.70
2019-03-28T11:20:35.702Z,13.30
2019-03-28T11:23:02.445Z,13.20
2019-03-28T11:25:28.894Z,13.10
2019-03-28T11:27:55.162Z,13.10
2019-03-28T11:30:21.459Z,13.10
2019-03-28T11:32:47.746Z,12.90
2019-03-28T11:35:14.231Z,13.00
2019-03-28T11:37:40.503Z,13.00
2019-03-28T11:40:09.147Z,12.90
2019-03-28T11:42:35.484Z,13.00
2019-03-28T11:45:02.307Z,13.00
2019-03-28T11:47:28.587Z,12.90
2019-03-28T11:49:55.852Z,13.10
2019-03-28T11:52:22.183Z,13.10
2019-03-28T11:54:48.456Z,13.10
2019-03-28T11:57:15.957Z,13.00
2019-03-28T11:59:42.521Z,13.20
2019-03-28T12:02:19.776Z,13.20
2019-03-28T12:04:38.739Z,13.40
2019-03-28T12:07:04.989Z,13.60
2019-03-28T12:09:31.274Z,13.40
2019-03-28T12:11:57.628Z,13.40
2019-03-28T12:14:23.894Z,13.60
2019-03-28T12:16:50.202Z,13.80
2019-03-28T12:19:17.883Z,14.00
2019-03-28T12:21:44.725Z,14.20
2019-03-28T12:24:11.054Z,14.30
2019-03-28T12:26:37.357Z,14.40
2019-03-28T12:29:05.779Z,14.60
2019-03-28T12:31:33.163Z,14.40
2019-03-28T12:33:59.965Z,14.50
2019-03-28T12:36:26.534Z,14.40
2019-03-28T12:38:52.855Z,14.20
2019-03-28T12:41:19.115Z,14.30
2019-03-28T12:43:45.442Z,14.20
2019-03-28T12:46:11.810Z,14.10
2019-03-28T12:48:38.097Z,14.30
2019-03-28T12:51:04.392Z,14.40
2019-03-28T12:53:30.803Z,14.50
2019-03-28T12:55:58.402Z,14.60
2019-03-28T12:58:24.677Z,14.60
2019-03-28T13:00:51.010Z,14.60
2019-03-28T13:03:17.269Z,14.50
2019-03-28T13:05:43.557Z,14.40
2019-03-28T13:08:09.825Z,14.80
2019-03-28T13:10:36.206Z,15.10
2019-03-28T13:13:03.828Z,15.20
2019-03-28T13:15:30.473Z,15.20
2019-03-28T13:17:56.738Z,15.30
2019-03-28T13:20:23.126Z,15.40
2019-03-28T13:22:51.921Z,15.50
2019-03-28T13:25:17.500Z,15.40
2019-03-28T13:27:43.785Z,15.30
2019-03-28T13:30:12.270Z,15.70
2019-03-28T13:32:42.189Z,15.70
2019-03-28T13:35:07.025Z,15.90
2019-03-28T13:37:33.313Z,16.20
2019-03-28T13:39:59.625Z,16.20
2019-03-28T13:42:26.162Z,16.00
2019-03-28T13:44:52.430Z,15.90
2019-03-28T13:47:18.717Z,15.80
2019-03-28T13:49:44.985Z,15.40
2019-03-28T13:52:11.284Z,15.20
2019-03-28T13:54:37.546Z,15.00
2019-03-28T13:57:03.824Z,15.10
2019-03-28T13:59:30.131Z,14.80
2019-03-28T14:01:56.392Z,14.80
2019-03-28T14:04:22.693Z,14.70
2019-03-28T14:06:48.963Z,15.00
2019-03-28T14:09:15.254Z,15.10
2019-03-28T14:11:41.553Z,14.80
2019-03-28T14:14:07.858Z,14.60
2019-03-28T14:16:34.134Z,14.50
2019-03-28T14:19:00.429Z,14.70
2019-03-28T14:21:26.693Z,14.80
2019-03-28T14:23:53.005Z,14.80
2019-03-28T14:26:19.329Z,14.70
2019-03-28T14:28:45.910Z,14.70
2019-03-28T14:31:12.201Z,14.70
2019-03-28T14:33:38.484Z,14.70
2019-03-28T14:36:04.774Z,14.60
2019-03-28T14:38:31.040Z,14.50
2019-03-28T14:40:58.452Z,14.50
2019-03-28T14:43:25.028Z,14.50
2019-03-28T14:45:51.318Z,14.40
2019-03-28T14:48:17.593Z,14.50
2019-03-28T14:50:44.006Z,14.20
2019-03-28T14:53:10.290Z,14.20
2019-03-28T14:55:36.660Z,14.10
2019-03-28T14:58:04.185Z,14.00
2019-03-28T15:00:49.611Z,13.90
2019-03-28T15:03:25.812Z,13.90
2019-03-28T15:05:44.376Z,13.90
2019-03-28T15:08:10.768Z,14.00
2019-03-28T15:10:37.137Z,14.00
2019-03-28T15:13:03.824Z,14.00
2019-03-28T15:15:30.198Z,13.90
2019-03-28T15:17:56.512Z,14.10
2019-03-28T15:20:22.921Z,14.10
2019-03-28T15:22:49.202Z,14.10
2019-03-28T15:25:15.513Z,14.10
2019-03-28T15:27:41.832Z,14.10
2019-03-28T15:30:08.322Z,14.20
2019-03-28T15:32:34.611Z,13.90
2019-03-28T15:35:00.917Z,13.80
2019-03-28T15:37:27.189Z,13.70
2019-03-28T15:39:53.515Z,13.50
2019-03-28T15:42:21.726Z,13.50
2019-03-28T15:44:47.897Z,13.40
2019-03-28T15:47:14.263Z,13.40
2019-03-28T15:49:40.498Z,13.40
2019-03-28T15:52:06.831Z,13.30
2019-03-28T15:54:33.099Z,13.30
2019-03-28T15:56:59.515Z,13.20
2019-03-28T15:59:25.791Z,13.10
2019-03-28T16:01:52.202Z,13.10
2019-03-28T16:04:18.513Z,13.10
2019-03-28T16:06:45.196Z,13.10
2019-03-28T16:09:11.453Z,13.00
2019-03-28T16:11:37.746Z,12.90
2019-03-28T16:14:04.042Z,12.90
2019-03-28T16:16:30.722Z,12.90
2019-03-28T16:18:57.013Z,12.80
2019-03-28T16:21:26.526Z,12.80
2019-03-28T16:23:51.418Z,12.80
2019-03-28T16:26:17.703Z,12.70
2019-03-28T16:28:44.051Z,12.70
2019-03-28T16:31:10.325Z,12.70
2019-03-28T16:33:36.673Z,12.60
2019-03-28T16:36:02.938Z,12.70
2019-03-28T16:38:29.228Z,12.70
2019-03-28T16:40:55.521Z,12.70
2019-03-28T16:43:21.800Z,12.70
2019-03-28T16:45:48.124Z,12.60
2019-03-28T16:48:14.374Z,12.50
2019-03-28T16:50:40.683Z,12.50
2019-03-28T16:53:06.948Z,12.50
2019-03-28T16:55:33.346Z,12.50
2019-03-28T16:57:59.717Z,12.40
2019-03-28T17:00:34.069Z,12.40
2019-03-28T17:03:00.427Z,12.40
2019-03-28T17:05:27.254Z,12.40
2019-03-28T17:07:53.750Z,12.40
2019-03-28T17:10:40.744Z,12.40
2019-03-28T17:13:07.681Z,12.30
2019-03-28T17:15:33.955Z,12.20
2019-03-28T17:18:00.257Z,12.20
2019-03-28T17:20:26.539Z,12.10
2019-03-28T17:22:52.865Z,12.20
2019-03-28T17:25:19.158Z,12.10
2019-03-28T17:27:46.604Z,12.10
2019-03-28T17:30:13.225Z,12.10
2019-03-28T17:32:39.526Z,12.00
2019-03-28T17:35:06.265Z,12.00
2019-03-28T17:37:32.539Z,12.00
2019-03-28T17:39:58.837Z,11.90
2019-03-28T17:42:25.108Z,11.90
2019-03-28T17:44:51.397Z,11.80
2019-03-28T17:47:17.702Z,11.80
2019-03-28T17:49:44.357Z,11.70
2019-03-28T17:52:10.746Z,11.60
2019-03-28T17:54:37.710Z,11.60
2019-03-28T17:57:04.235Z,11.50
2019-03-28T17:59:30.451Z,11.50
2019-03-28T18:01:56.746Z,11.40
2019-03-28T18:04:23.457Z,11.40
2019-03-28T18:06:50.048Z,11.40
2019-03-28T18:09:16.393Z,11.30
2019-03-28T18:11:42.702Z,11.30
2019-03-28T18:14:08.961Z,11.20
2019-03-28T18:16:35.234Z,11.20
2019-03-28T18:19:01.523Z,11.20
2019-03-28T18:21:27.799Z,11.10
2019-03-28T18:23:54.222Z,11.10
2019-03-28T18:26:20.499Z,11.10
2019-03-28T18:28:46.867Z,11.00
2019-03-28T18:31:13.147Z,11.00
2019-03-28T18:33:39.547Z,11.00
2019-03-28T18:36:05.861Z,10.90
2019-03-28T18:38:32.122Z,10.90
2019-03-28T18:40:58.398Z,10.90
2019-03-28T18:43:24.714Z,10.90
2019-03-28T18:45:50.964Z,11.00
2019-03-28T18:48:29.098Z,11.00
2019-03-28T18:50:45.443Z,11.00
2019-03-28T18:53:11.710Z,11.10
2019-03-28T18:55:38.006Z,11.30
2019-03-28T18:58:05.588Z,11.10
2019-03-28T19:00:32.267Z,11.20
2019-03-28T19:02:58.534Z,11.20
2019-03-28T19:05:24.836Z,11.20
2019-03-28T19:07:51.113Z,11.20
2019-03-28T19:10:17.614Z,11.20
2019-03-28T19:12:43.903Z,11.20
2019-03-28T19:15:10.401Z,11.20
2019-03-28T19:17:36.685Z,11.30
2019-03-28T19:20:06.154Z,11.30
2019-03-28T19:22:32.482Z,11.30
2019-03-28T19:24:58.745Z,11.20
2019-03-28T19:27:25.920Z,11.20
2019-03-28T19:29:52.214Z,11.20
2019-03-28T19:32:18.678Z,11.20
2019-03-28T19:34:44.937Z,11.20
2019-03-28T19:37:11.578Z,11.20
2019-03-28T19:39:38.158Z,11.20
2019-03-28T19:42:04.926Z,11.20
2019-03-28T19:44:31.437Z,10.20
2019-03-28T19:46:58.006Z,11.10
2019-03-28T19:49:24.394Z,11.10
2019-03-28T19:51:50.663Z,11.10
2019-03-28T19:54:16.958Z,11.20
2019-03-28T19:56:43.263Z,11.10
2019-03-28T19:59:09.824Z,11.20
2019-03-28T20:01:36.093Z,11.10
2019-03-28T20:04:02.413Z,10.20
2019-03-28T20:06:28.694Z,11.10
2019-03-28T20:08:55.134Z,11.10
2019-03-28T20:11:21.549Z,11.10
2019-03-28T20:13:47.935Z,11.10
2019-03-28T20:16:14.248Z,11.20
2019-03-28T20:18:43.168Z,11.20
2019-03-28T20:21:09.698Z,11.00
2019-03-28T20:23:35.946Z,11.00
2019-03-28T20:26:02.559Z,11.00
2019-03-28T20:28:28.830Z,10.90
2019-03-28T20:30:55.197Z,10.90
2019-03-28T20:33:24.761Z,10.90
2019-03-28T20:36:05.897Z,10.90
2019-03-28T20:38:17.779Z,10.90
2019-03-28T20:40:44.274Z,10.90
2019-03-28T20:43:12.743Z,10.90
2019-03-28T20:45:39.006Z,10.90
2019-03-28T20:48:05.310Z,10.90
2019-03-28T20:50:31.959Z,10.80
2019-03-28T20:52:58.375Z,10.90
2019-03-28T20:55:25.551Z,10.90
2019-03-28T20:57:52.060Z,10.90
2019-03-28T21:00:38.912Z,10.90
2019-03-28T21:03:05.582Z,10.90
2019-03-28T21:05:31.982Z,10.90
2019-03-28T21:07:58.390Z,10.80
2019-03-28T21:10:25.385Z,11.00
2019-03-28T21:12:52.837Z,10.80
2019-03-28T21:15:19.206Z,10.70
2019-03-28T21:17:46.117Z,10.70
2019-03-28T21:20:12.525Z,10.70
2019-03-28T21:22:38.801Z,10.70
2019-03-28T21:25:05.872Z,10.70
2019-03-28T21:27:32.970Z,10.70
2019-03-28T21:29:59.717Z,10.80
2019-03-28T21:32:25.963Z,11.00
2019-03-28T21:34:52.208Z,11.00
2019-03-28T21:37:18.466Z,10.80
2019-03-28T21:39:44.724Z,10.60
2019-03-28T21:42:11.953Z,10.70
2019-03-28T21:44:38.302Z,10.60
2019-03-28T21:47:04.557Z,10.80
2019-03-28T21:49:30.811Z,10.80
2019-03-28T21:51:57.042Z,10.70
2019-03-28T21:54:23.274Z,10.50
2019-03-28T21:56:50.062Z,10.60
2019-03-28T21:59:17.709Z,10.50
2019-03-28T22:01:44.152Z,10.60
2019-03-28T22:04:10.430Z,10.60
2019-03-28T22:06:42.849Z,10.50
2019-03-28T22:09:05.457Z,10.80
2019-03-28T22:11:31.686Z,10.90
2019-03-28T22:13:57.987Z,10.90
2019-03-28T22:16:24.252Z,10.80
2019-03-28T22:18:50.524Z,10.80
2019-03-28T22:21:16.778Z,10.80
2019-03-28T22:23:43.011Z,10.90
2019-03-28T22:26:09.282Z,11.00
2019-03-28T22:28:37.880Z,10.90
2019-03-28T22:31:04.845Z,10.90
2019-03-28T22:33:31.209Z,10.90
2019-03-28T22:35:57.478Z,10.80
2019-03-28T22:38:23.686Z,10.80
2019-03-28T22:40:50.069Z,10.70
2019-03-28T22:43:16.298Z,10.70
2019-03-28T22:45:43.760Z,10.70
2019-03-28T22:48:11.491Z,10.60
2019-03-28T22:50:38.211Z,10.60
2019-03-28T22:53:04.462Z,10.50
2019-03-28T22:55:30.681Z,10.60
2019-03-28T22:57:56.945Z,10.50
2019-03-28T23:00:25.630Z,10.50
2019-03-28T23:02:51.887Z,10.40
2019-03-28T23:05:18.217Z,10.50
2019-03-28T23:07:44.482Z,10.30
2019-03-28T23:10:10.915Z,10.30
2019-03-28T23:12:37.142Z,10.30
2019-03-28T23:15:07.701Z,10.20
2019-03-28T23:17:33.932Z,10.00
2019-03-28T23:20:00.323Z,10.10
2019-03-28T23:22:26.522Z,10.00
2019-03-28T23:24:52.779Z,10.10
2019-03-28T23:27:19.098Z,10.10
2019-03-28T23:29:45.387Z,10.10
2019-03-28T23:32:12.875Z,9.90
2019-03-28T23:34:39.372Z,9.80
2019-03-28T23:37:05.592Z,9.80
2019-03-28T23:39:31.858Z,9.70
2019-03-28T23:41:58.078Z,9.60
2019-03-28T23:44:24.297Z,9.60
2019-03-28T23:46:50.565Z,9.60
2019-03-28T23:49:16.795Z,9.50
2019-03-28T23:51:43.040Z,9.80
2019-03-28T23:54:09.308Z,9.60
2019-03-28T23:56:36.835Z,9.50
2019-03-28T23:59:03.403Z,9.40
